RJSC/GAJ METAR and TAF weather

Enter ICAO airport designator
Station Type Date Time Source
RJSC METAR 2022/10/01 08:00 UTC NOAA

RJSC 010800Z 02009KT 9999 FEW050 24/16 Q1017


Station Type Date Time Source
RJSC Decoded METAR 2022/10/01 08:00 UTC NOAA

Yamagata Airport, Japan (RJSC) 38-25N 140-22E 108M
Oct 01, 2022 - 04:00 AM EDT / 2022.10.01 0800 UTC
Wind: from the NNE (020 degrees) at 10 MPH (9 KT):0
Visibility: greater than 7 mile(s):0
Sky conditions: mostly clear
Temperature: 75 F (24 C)
Dew Point: 60 F (16 C)
Relative Humidity: 60%
Pressure (altimeter): 30.03 in. Hg (1017 hPa)
ob: RJSC 010800Z 02009KT 9999 FEW050 24/16 Q1017
cycle: 8

Station Type Date Time Source
RJSC TAF UTC NOAA

Error!

Example: see airport list